sensor_id;sensor_type;location;lat;lon;timestamp;temperature;humidity
24470;DHT22;12635;50.852;5.676;2023-04-06T00:01:40;4.30;99.90
24470;DHT22;12635;50.852;5.676;2023-04-06T00:04:07;4.00;99.90
24470;DHT22;12635;50.852;5.676;2023-04-06T00:06:34;4.10;99.90
24470;DHT22;12635;50.852;5.676;2023-04-06T00:09:01;4.00;99.90
24470;DHT22;12635;50.852;5.676;2023-04-06T00:11:28;4.00;99.90
24470;DHT22;12635;50.852;5.676;2023-04-06T00:13:56;4.00;99.90
24470;DHT22;12635;50.852;5.676;2023-04-06T00:16:23;3.90;99.90
24470;DHT22;12635;50.852;5.676;2023-04-06T00:18:50;4.00;99.90
24470;DHT22;12635;50.852;5.676;2023-04-06T00:21:16;3.80;99.90
24470;DHT22;12635;50.852;5.676;2023-04-06T00:23:43;3.90;99.90
24470;DHT22;12635;50.852;5.676;2023-04-06T00:26:10;4.00;99.90
24470;DHT22;12635;50.852;5.676;2023-04-06T00:28:37;3.80;99.90
24470;DHT22;12635;50.852;5.676;2023-04-06T00:31:05;3.90;99.90
24470;DHT22;12635;50.852;5.676;2023-04-06T00:33:32;3.70;99.90
24470;DHT22;12635;50.852;5.676;2023-04-06T00:35:59;3.70;99.90
24470;DHT22;12635;50.852;5.676;2023-04-06T00:38:26;3.70;99.90
24470;DHT22;12635;50.852;5.676;2023-04-06T00:40:53;3.60;99.90
24470;DHT22;12635;50.852;5.676;2023-04-06T00:43:19;3.50;99.90
24470;DHT22;12635;50.852;5.676;2023-04-06T00:45:46;3.60;99.90
24470;DHT22;12635;50.852;5.676;2023-04-06T00:48:14;3.50;99.90
24470;DHT22;12635;50.852;5.676;2023-04-06T00:50:42;3.30;99.90
24470;DHT22;12635;50.852;5.676;2023-04-06T00:53:09;3.30;99.90
24470;DHT22;12635;50.852;5.676;2023-04-06T00:55:36;3.00;99.90
24470;DHT22;12635;50.852;5.676;2023-04-06T00:58:03;3.20;99.90
24470;DHT22;12635;50.852;5.676;2023-04-06T01:00:31;3.20;99.90
24470;DHT22;12635;50.852;5.676;2023-04-06T01:02:58;3.10;99.90
24470;DHT22;12635;50.852;5.676;2023-04-06T01:05:26;3.20;99.90
24470;DHT22;12635;50.852;5.676;2023-04-06T01:07:53;3.00;99.90
24470;DHT22;12635;50.852;5.676;2023-04-06T01:10:23;3.10;99.90
24470;DHT22;12635;50.852;5.676;2023-04-06T01:12:51;3.10;99.90
24470;DHT22;12635;50.852;5.676;2023-04-06T01:15:17;2.80;99.90
24470;DHT22;12635;50.852;5.676;2023-04-06T01:17:44;2.90;99.90
24470;DHT22;12635;50.852;5.676;2023-04-06T01:20:11;2.90;99.90
24470;DHT22;12635;50.852;5.676;2023-04-06T01:22:39;2.80;99.90
24470;DHT22;12635;50.852;5.676;2023-04-06T01:25:07;2.80;99.90
24470;DHT22;12635;50.852;5.676;2023-04-06T01:27:36;2.80;99.90
24470;DHT22;12635;50.852;5.676;2023-04-06T01:30:03;2.80;99.90
24470;DHT22;12635;50.852;5.676;2023-04-06T01:32:30;2.80;99.90
24470;DHT22;12635;50.852;5.676;2023-04-06T01:34:57;2.90;99.90
24470;DHT22;12635;50.852;5.676;2023-04-06T01:37:24;2.80;99.90
24470;DHT22;12635;50.852;5.676;2023-04-06T01:39:52;2.80;99.90
24470;DHT22;12635;50.852;5.676;2023-04-06T01:42:19;2.80;99.90
24470;DHT22;12635;50.852;5.676;2023-04-06T01:44:46;2.70;99.90
24470;DHT22;12635;50.852;5.676;2023-04-06T01:47:13;2.90;99.90
24470;DHT22;12635;50.852;5.676;2023-04-06T01:49:39;2.70;99.90
24470;DHT22;12635;50.852;5.676;2023-04-06T01:52:06;2.80;99.90
24470;DHT22;12635;50.852;5.676;2023-04-06T01:54:33;2.90;99.90
24470;DHT22;12635;50.852;5.676;2023-04-06T01:57:01;2.70;99.90
24470;DHT22;12635;50.852;5.676;2023-04-06T01:59:28;2.50;99.90
24470;DHT22;12635;50.852;5.676;2023-04-06T02:01:55;2.60;99.90
24470;DHT22;12635;50.852;5.676;2023-04-06T02:04:22;2.50;99.90
24470;DHT22;12635;50.852;5.676;2023-04-06T02:06:49;2.40;99.90
24470;DHT22;12635;50.852;5.676;2023-04-06T02:09:15;2.50;99.90
24470;DHT22;12635;50.852;5.676;2023-04-06T02:11:42;2.70;99.90
24470;DHT22;12635;50.852;5.676;2023-04-06T02:14:11;2.70;99.90
24470;DHT22;12635;50.852;5.676;2023-04-06T02:16:37;2.40;99.90
24470;DHT22;12635;50.852;5.676;2023-04-06T02:19:04;2.50;99.90
24470;DHT22;12635;50.852;5.676;2023-04-06T02:21:31;2.40;99.90
24470;DHT22;12635;50.852;5.676;2023-04-06T02:23:58;2.50;99.90
24470;DHT22;12635;50.852;5.676;2023-04-06T02:26:25;2.70;99.90
24470;DHT22;12635;50.852;5.676;2023-04-06T02:28:51;2.60;99.90
24470;DHT22;12635;50.852;5.676;2023-04-06T02:31:20;2.60;99.90
24470;DHT22;12635;50.852;5.676;2023-04-06T02:33:46;2.30;99.90
24470;DHT22;12635;50.852;5.676;2023-04-06T02:36:13;2.40;99.90
24470;DHT22;12635;50.852;5.676;2023-04-06T02:38:40;2.30;99.90
24470;DHT22;12635;50.852;5.676;2023-04-06T02:41:07;2.40;99.90
24470;DHT22;12635;50.852;5.676;2023-04-06T02:43:34;2.50;99.90
24470;DHT22;12635;50.852;5.676;2023-04-06T02:46:01;2.40;99.90
24470;DHT22;12635;50.852;5.676;2023-04-06T02:48:29;2.40;99.90
24470;DHT22;12635;50.852;5.676;2023-04-06T02:50:56;2.50;99.90
24470;DHT22;12635;50.852;5.676;2023-04-06T02:53:23;2.60;99.90
24470;DHT22;12635;50.852;5.676;2023-04-06T02:55:50;2.50;99.90
24470;DHT22;12635;50.852;5.676;2023-04-06T02:58:17;2.70;99.90
24470;DHT22;12635;50.852;5.676;2023-04-06T03:00:43;2.60;99.90
24470;DHT22;12635;50.852;5.676;2023-04-06T03:03:10;2.60;99.90
24470;DHT22;12635;50.852;5.676;2023-04-06T03:05:38;2.90;99.90
24470;DHT22;12635;50.852;5.676;2023-04-06T03:08:05;2.70;99.90
24470;DHT22;12635;50.852;5.676;2023-04-06T03:10:32;2.70;99.90
24470;DHT22;12635;50.852;5.676;2023-04-06T03:12:59;2.70;99.90
24470;DHT22;12635;50.852;5.676;2023-04-06T03:15:26;2.70;99.90
24470;DHT22;12635;50.852;5.676;2023-04-06T03:17:52;2.80;99.90
24470;DHT22;12635;50.852;5.676;2023-04-06T03:20:19;3.00;99.90
24470;DHT22;12635;50.852;5.676;2023-04-06T03:22:47;3.10;99.90
24470;DHT22;12635;50.852;5.676;2023-04-06T03:25:14;3.10;99.90
24470;DHT22;12635;50.852;5.676;2023-04-06T03:27:41;3.10;99.90
24470;DHT22;12635;50.852;5.676;2023-04-06T03:30:08;3.10;99.90
24470;DHT22;12635;50.852;5.676;2023-04-06T03:32:35;3.20;99.90
24470;DHT22;12635;50.852;5.676;2023-04-06T03:35:02;3.10;99.90
24470;DHT22;12635;50.852;5.676;2023-04-06T03:37:29;3.10;99.90
24470;DHT22;12635;50.852;5.676;2023-04-06T03:39:57;3.10;99.90
24470;DHT22;12635;50.852;5.676;2023-04-06T03:42:24;3.10;99.90
24470;DHT22;12635;50.852;5.676;2023-04-06T03:44:52;3.10;99.90
24470;DHT22;12635;50.852;5.676;2023-04-06T03:47:18;3.10;99.90
24470;DHT22;12635;50.852;5.676;2023-04-06T03:49:45;3.20;99.90
24470;DHT22;12635;50.852;5.676;2023-04-06T03:52:12;3.30;99.90
24470;DHT22;12635;50.852;5.676;2023-04-06T03:54:39;3.30;99.90
24470;DHT22;12635;50.852;5.676;2023-04-06T03:57:07;3.30;99.90
24470;DHT22;12635;50.852;5.676;2023-04-06T03:59:34;3.40;99.90
24470;DHT22;12635;50.852;5.676;2023-04-06T04:02:01;3.40;99.90
24470;DHT22;12635;50.852;5.676;2023-04-06T04:04:28;3.30;99.90
24470;DHT22;12635;50.852;5.676;2023-04-06T04:06:54;3.50;99.90
24470;DHT22;12635;50.852;5.676;2023-04-06T04:09:21;3.50;99.90
24470;DHT22;12635;50.852;5.676;2023-04-06T04:11:48;3.50;99.90
24470;DHT22;12635;50.852;5.676;2023-04-06T04:14:16;3.30;99.90
24470;DHT22;12635;50.852;5.676;2023-04-06T04:16:43;3.40;99.90
24470;DHT22;12635;50.852;5.676;2023-04-06T04:19:10;3.30;99.90
24470;DHT22;12635;50.852;5.676;2023-04-06T04:21:42;3.50;99.90
24470;DHT22;12635;50.852;5.676;2023-04-06T04:24:08;3.30;99.90
24470;DHT22;12635;50.852;5.676;2023-04-06T04:26:35;3.40;99.90
24470;DHT22;12635;50.852;5.676;2023-04-06T04:29:02;3.40;99.90
24470;DHT22;12635;50.852;5.676;2023-04-06T04:31:30;3.40;99.90
24470;DHT22;12635;50.852;5.676;2023-04-06T04:33:58;3.40;99.90
24470;DHT22;12635;50.852;5.676;2023-04-06T04:36:24;3.50;99.90
24470;DHT22;12635;50.852;5.676;2023-04-06T04:38:51;3.40;99.90
24470;DHT22;12635;50.852;5.676;2023-04-06T04:41:18;3.40;99.90
24470;DHT22;12635;50.852;5.676;2023-04-06T04:43:45;3.40;99.90
24470;DHT22;12635;50.852;5.676;2023-04-06T04:46:12;3.50;99.90
24470;DHT22;12635;50.852;5.676;2023-04-06T04:48:40;3.60;99.90
24470;DHT22;12635;50.852;5.676;2023-04-06T04:51:07;3.70;99.90
24470;DHT22;12635;50.852;5.676;2023-04-06T04:53:34;3.60;99.90
24470;DHT22;12635;50.852;5.676;2023-04-06T04:56:01;3.70;99.90
24470;DHT22;12635;50.852;5.676;2023-04-06T04:58:28;3.70;99.90
24470;DHT22;12635;50.852;5.676;2023-04-06T05:00:55;3.70;99.90
24470;DHT22;12635;50.852;5.676;2023-04-06T05:03:23;3.80;99.90
24470;DHT22;12635;50.852;5.676;2023-04-06T05:05:52;3.90;99.90
24470;DHT22;12635;50.852;5.676;2023-04-06T05:08:19;3.80;99.90
24470;DHT22;12635;50.852;5.676;2023-04-06T05:10:46;3.80;99.90
24470;DHT22;12635;50.852;5.676;2023-04-06T05:13:13;3.90;99.90
24470;DHT22;12635;50.852;5.676;2023-04-06T05:15:40;4.00;99.90
24470;DHT22;12635;50.852;5.676;2023-04-06T05:18:07;4.10;99.90
24470;DHT22;12635;50.852;5.676;2023-04-06T05:20:34;4.00;99.90
24470;DHT22;12635;50.852;5.676;2023-04-06T05:23:02;4.10;99.90
24470;DHT22;12635;50.852;5.676;2023-04-06T05:25:30;4.10;99.90
24470;DHT22;12635;50.852;5.676;2023-04-06T05:27:56;4.10;99.90
24470;DHT22;12635;50.852;5.676;2023-04-06T05:30:23;4.10;99.90
24470;DHT22;12635;50.852;5.676;2023-04-06T05:32:50;4.20;99.90
24470;DHT22;12635;50.852;5.676;2023-04-06T05:35:17;4.20;99.90
24470;DHT22;12635;50.852;5.676;2023-04-06T05:37:45;4.30;99.90
24470;DHT22;12635;50.852;5.676;2023-04-06T05:40:13;4.30;99.90
24470;DHT22;12635;50.852;5.676;2023-04-06T05:42:41;4.40;99.90
24470;DHT22;12635;50.852;5.676;2023-04-06T05:45:08;4.40;99.90
24470;DHT22;12635;50.852;5.676;2023-04-06T05:47:36;4.50;99.90
24470;DHT22;12635;50.852;5.676;2023-04-06T05:50:03;4.60;99.90
24470;DHT22;12635;50.852;5.676;2023-04-06T05:52:30;4.60;99.90
24470;DHT22;12635;50.852;5.676;2023-04-06T05:54:57;4.70;99.90
24470;DHT22;12635;50.852;5.676;2023-04-06T05:57:25;4.70;99.90
24470;DHT22;12635;50.852;5.676;2023-04-06T05:59:52;4.70;99.90
24470;DHT22;12635;50.852;5.676;2023-04-06T06:02:19;4.80;99.90
24470;DHT22;12635;50.852;5.676;2023-04-06T06:04:45;4.80;99.90
24470;DHT22;12635;50.852;5.676;2023-04-06T06:07:13;4.80;99.90
24470;DHT22;12635;50.852;5.676;2023-04-06T06:09:40;4.90;99.90
24470;DHT22;12635;50.852;5.676;2023-04-06T06:12:07;4.90;99.90
24470;DHT22;12635;50.852;5.676;2023-04-06T06:14:35;4.90;99.90
24470;DHT22;12635;50.852;5.676;2023-04-06T06:17:02;5.00;99.90
24470;DHT22;12635;50.852;5.676;2023-04-06T06:19:29;5.00;99.90
24470;DHT22;12635;50.852;5.676;2023-04-06T06:21:56;5.10;99.90
24470;DHT22;12635;50.852;5.676;2023-04-06T06:24:24;5.20;99.90
24470;DHT22;12635;50.852;5.676;2023-04-06T06:26:50;5.20;99.90
24470;DHT22;12635;50.852;5.676;2023-04-06T06:29:17;5.20;99.90
24470;DHT22;12635;50.852;5.676;2023-04-06T06:31:46;5.30;99.90
24470;DHT22;12635;50.852;5.676;2023-04-06T06:34:12;5.30;99.90
24470;DHT22;12635;50.852;5.676;2023-04-06T06:36:39;5.40;99.90
24470;DHT22;12635;50.852;5.676;2023-04-06T06:39:06;5.50;99.90
24470;DHT22;12635;50.852;5.676;2023-04-06T06:41:33;5.50;99.90
24470;DHT22;12635;50.852;5.676;2023-04-06T06:44:01;5.70;99.90
24470;DHT22;12635;50.852;5.676;2023-04-06T06:46:27;5.70;99.90
24470;DHT22;12635;50.852;5.676;2023-04-06T06:48:56;5.80;99.90
24470;DHT22;12635;50.852;5.676;2023-04-06T06:51:23;5.80;99.90
24470;DHT22;12635;50.852;5.676;2023-04-06T06:53:50;5.90;99.90
24470;DHT22;12635;50.852;5.676;2023-04-06T06:56:17;5.90;99.90
24470;DHT22;12635;50.852;5.676;2023-04-06T06:58:44;5.90;99.90
24470;DHT22;12635;50.852;5.676;2023-04-06T07:01:11;6.00;99.90
24470;DHT22;12635;50.852;5.676;2023-04-06T07:03:37;6.00;99.90
24470;DHT22;12635;50.852;5.676;2023-04-06T07:06:06;6.10;99.90
24470;DHT22;12635;50.852;5.676;2023-04-06T07:08:32;6.20;99.90
24470;DHT22;12635;50.852;5.676;2023-04-06T07:10:59;6.30;99.90
24470;DHT22;12635;50.852;5.676;2023-04-06T07:13:26;6.40;99.90
24470;DHT22;12635;50.852;5.676;2023-04-06T07:15:53;6.50;99.90
24470;DHT22;12635;50.852;5.676;2023-04-06T07:18:20;6.50;99.90
24470;DHT22;12635;50.852;5.676;2023-04-06T07:20:47;6.70;99.90
24470;DHT22;12635;50.852;5.676;2023-04-06T07:23:15;6.80;99.90
24470;DHT22;12635;50.852;5.676;2023-04-06T07:25:42;6.70;99.90
24470;DHT22;12635;50.852;5.676;2023-04-06T07:28:10;6.80;99.90
24470;DHT22;12635;50.852;5.676;2023-04-06T07:30:37;6.90;99.90
24470;DHT22;12635;50.852;5.676;2023-04-06T07:33:04;7.00;99.90
24470;DHT22;12635;50.852;5.676;2023-04-06T07:35:32;7.00;99.90
24470;DHT22;12635;50.852;5.676;2023-04-06T07:38:00;7.10;99.90
24470;DHT22;12635;50.852;5.676;2023-04-06T07:40:28;7.30;99.90
24470;DHT22;12635;50.852;5.676;2023-04-06T07:42:57;7.50;99.90
24470;DHT22;12635;50.852;5.676;2023-04-06T07:45:23;7.40;99.90
24470;DHT22;12635;50.852;5.676;2023-04-06T07:47:50;7.50;99.90
24470;DHT22;12635;50.852;5.676;2023-04-06T07:50:17;7.50;99.90
24470;DHT22;12635;50.852;5.676;2023-04-06T07:52:44;7.60;99.90
24470;DHT22;12635;50.852;5.676;2023-04-06T07:55:11;7.50;99.90
24470;DHT22;12635;50.852;5.676;2023-04-06T07:57:39;7.70;99.90
24470;DHT22;12635;50.852;5.676;2023-04-06T08:00:07;7.80;99.90
24470;DHT22;12635;50.852;5.676;2023-04-06T08:02:35;7.90;99.90
24470;DHT22;12635;50.852;5.676;2023-04-06T08:05:01;7.90;99.90
24470;DHT22;12635;50.852;5.676;2023-04-06T08:07:28;8.00;99.90
24470;DHT22;12635;50.852;5.676;2023-04-06T08:09:55;8.10;99.90
24470;DHT22;12635;50.852;5.676;2023-04-06T08:12:22;8.20;99.90
24470;DHT22;12635;50.852;5.676;2023-04-06T08:14:50;8.10;99.90
24470;DHT22;12635;50.852;5.676;2023-04-06T08:17:17;8.20;99.90
24470;DHT22;12635;50.852;5.676;2023-04-06T08:19:44;8.30;99.90
24470;DHT22;12635;50.852;5.676;2023-04-06T08:22:11;8.30;99.90
24470;DHT22;12635;50.852;5.676;2023-04-06T08:24:38;8.40;99.90
24470;DHT22;12635;50.852;5.676;2023-04-06T08:27:05;8.40;99.90
24470;DHT22;12635;50.852;5.676;2023-04-06T08:29:32;8.40;99.90
24470;DHT22;12635;50.852;5.676;2023-04-06T08:32:00;8.40;99.90
24470;DHT22;12635;50.852;5.676;2023-04-06T08:34:31;8.50;99.90
24470;DHT22;12635;50.852;5.676;2023-04-06T08:36:57;8.50;99.90
24470;DHT22;12635;50.852;5.676;2023-04-06T08:39:24;8.50;99.90
24470;DHT22;12635;50.852;5.676;2023-04-06T08:41:53;8.60;99.90
24470;DHT22;12635;50.852;5.676;2023-04-06T08:44:22;8.60;99.90
24470;DHT22;12635;50.852;5.676;2023-04-06T08:46:49;8.80;99.90
24470;DHT22;12635;50.852;5.676;2023-04-06T08:49:19;8.80;99.90
24470;DHT22;12635;50.852;5.676;2023-04-06T08:51:46;8.70;99.90
24470;DHT22;12635;50.852;5.676;2023-04-06T08:54:13;8.90;99.90
24470;DHT22;12635;50.852;5.676;2023-04-06T08:56:40;9.00;99.90
24470;DHT22;12635;50.852;5.676;2023-04-06T08:59:08;9.20;99.90
24470;DHT22;12635;50.852;5.676;2023-04-06T09:01:37;9.30;99.90
24470;DHT22;12635;50.852;5.676;2023-04-06T09:04:06;9.30;99.90
24470;DHT22;12635;50.852;5.676;2023-04-06T09:06:36;9.40;99.90
24470;DHT22;12635;50.852;5.676;2023-04-06T09:09:03;9.70;99.90
24470;DHT22;12635;50.852;5.676;2023-04-06T09:11:40;9.50;99.90
24470;DHT22;12635;50.852;5.676;2023-04-06T09:14:07;9.70;99.90
24470;DHT22;12635;50.852;5.676;2023-04-06T09:16:38;9.90;99.90
24470;DHT22;12635;50.852;5.676;2023-04-06T09:19:05;10.10;99.90
24470;DHT22;12635;50.852;5.676;2023-04-06T09:21:32;9.90;99.90
24470;DHT22;12635;50.852;5.676;2023-04-06T09:24:00;9.70;99.90
24470;DHT22;12635;50.852;5.676;2023-04-06T09:26:27;9.80;99.90
24470;DHT22;12635;50.852;5.676;2023-04-06T09:28:56;10.10;99.90
24470;DHT22;12635;50.852;5.676;2023-04-06T09:31:23;10.00;99.90
24470;DHT22;12635;50.852;5.676;2023-04-06T09:33:51;9.90;99.90
24470;DHT22;12635;50.852;5.676;2023-04-06T09:36:18;10.00;99.90
24470;DHT22;12635;50.852;5.676;2023-04-06T09:38:52;9.80;99.90
24470;DHT22;12635;50.852;5.676;2023-04-06T09:41:25;10.30;99.90
24470;DHT22;12635;50.852;5.676;2023-04-06T09:44:01;9.80;99.90
24470;DHT22;12635;50.852;5.676;2023-04-06T09:46:29;9.80;99.90
24470;DHT22;12635;50.852;5.676;2023-04-06T09:48:57;9.70;99.90
24470;DHT22;12635;50.852;5.676;2023-04-06T09:51:24;9.80;99.90
24470;DHT22;12635;50.852;5.676;2023-04-06T09:53:52;9.90;99.90
24470;DHT22;12635;50.852;5.676;2023-04-06T09:56:22;9.70;99.90
24470;DHT22;12635;50.852;5.676;2023-04-06T09:58:51;9.70;99.90
24470;DHT22;12635;50.852;5.676;2023-04-06T10:01:20;9.80;99.90
24470;DHT22;12635;50.852;5.676;2023-04-06T10:03:49;10.00;99.90
24470;DHT22;12635;50.852;5.676;2023-04-06T10:06:19;9.90;99.90
24470;DHT22;12635;50.852;5.676;2023-04-06T10:08:47;9.70;99.90
24470;DHT22;12635;50.852;5.676;2023-04-06T10:11:14;9.90;99.90
24470;DHT22;12635;50.852;5.676;2023-04-06T10:13:41;9.70;99.90
24470;DHT22;12635;50.852;5.676;2023-04-06T10:16:10;9.60;99.90
24470;DHT22;12635;50.852;5.676;2023-04-06T10:18:38;9.80;99.90
24470;DHT22;12635;50.852;5.676;2023-04-06T10:21:06;9.70;99.90
24470;DHT22;12635;50.852;5.676;2023-04-06T10:23:35;9.60;99.90
24470;DHT22;12635;50.852;5.676;2023-04-06T10:26:02;9.50;99.90
24470;DHT22;12635;50.852;5.676;2023-04-06T10:28:31;9.50;99.90
24470;DHT22;12635;50.852;5.676;2023-04-06T10:30:58;9.40;99.90
24470;DHT22;12635;50.852;5.676;2023-04-06T10:33:27;9.40;99.90
24470;DHT22;12635;50.852;5.676;2023-04-06T10:35:54;9.20;99.90
24470;DHT22;12635;50.852;5.676;2023-04-06T10:38:21;9.50;99.90
24470;DHT22;12635;50.852;5.676;2023-04-06T10:41:03;9.10;99.90
24470;DHT22;12635;50.852;5.676;2023-04-06T10:43:32;8.80;99.90
24470;DHT22;12635;50.852;5.676;2023-04-06T10:46:00;8.90;99.90
24470;DHT22;12635;50.852;5.676;2023-04-06T10:48:37;8.90;99.90
24470;DHT22;12635;50.852;5.676;2023-04-06T10:51:07;9.10;99.90
24470;DHT22;12635;50.852;5.676;2023-04-06T10:53:34;9.00;99.90
24470;DHT22;12635;50.852;5.676;2023-04-06T10:56:01;8.90;99.90
24470;DHT22;12635;50.852;5.676;2023-04-06T10:58:29;9.10;99.90
24470;DHT22;12635;50.852;5.676;2023-04-06T11:00:56;8.70;99.90
24470;DHT22;12635;50.852;5.676;2023-04-06T11:03:23;8.60;99.90
24470;DHT22;12635;50.852;5.676;2023-04-06T11:05:51;8.20;99.90
24470;DHT22;12635;50.852;5.676;2023-04-06T11:08:28;8.10;99.90
24470;DHT22;12635;50.852;5.676;2023-04-06T11:11:04;8.00;99.90
24470;DHT22;12635;50.852;5.676;2023-04-06T11:13:40;8.00;99.90
24470;DHT22;12635;50.852;5.676;2023-04-06T11:16:12;8.10;99.90
24470;DHT22;12635;50.852;5.676;2023-04-06T11:18:46;8.10;99.90
24470;DHT22;12635;50.852;5.676;2023-04-06T11:21:14;8.00;99.90
24470;DHT22;12635;50.852;5.676;2023-04-06T11:23:41;7.90;99.90
24470;DHT22;12635;50.852;5.676;2023-04-06T11:26:10;7.80;99.90
24470;DHT22;12635;50.852;5.676;2023-04-06T11:28:37;7.80;99.90
24470;DHT22;12635;50.852;5.676;2023-04-06T11:31:04;7.60;99.90
24470;DHT22;12635;50.852;5.676;2023-04-06T11:33:34;7.50;99.90
24470;DHT22;12635;50.852;5.676;2023-04-06T11:36:01;7.50;99.90
24470;DHT22;12635;50.852;5.676;2023-04-06T11:38:30;7.40;99.90
24470;DHT22;12635;50.852;5.676;2023-04-06T11:40:57;7.50;99.90
24470;DHT22;12635;50.852;5.676;2023-04-06T11:43:28;7.70;99.90
24470;DHT22;12635;50.852;5.676;2023-04-06T11:45:59;7.60;99.90
24470;DHT22;12635;50.852;5.676;2023-04-06T11:48:26;7.70;99.90
24470;DHT22;12635;50.852;5.676;2023-04-06T11:50:55;7.90;99.90
24470;DHT22;12635;50.852;5.676;2023-04-06T11:53:22;7.90;99.90
24470;DHT22;12635;50.852;5.676;2023-04-06T11:55:50;7.80;99.90
24470;DHT22;12635;50.852;5.676;2023-04-06T11:58:17;7.90;99.90
24470;DHT22;12635;50.852;5.676;2023-04-06T12:00:44;7.80;99.90
24470;DHT22;12635;50.852;5.676;2023-04-06T12:03:12;7.80;99.90
24470;DHT22;12635;50.852;5.676;2023-04-06T12:05:39;7.90;99.90
24470;DHT22;12635;50.852;5.676;2023-04-06T12:08:05;8.00;99.90
24470;DHT22;12635;50.852;5.676;2023-04-06T12:10:32;8.00;99.90
24470;DHT22;12635;50.852;5.676;2023-04-06T12:13:01;7.80;99.90
24470;DHT22;12635;50.852;5.676;2023-04-06T12:15:28;8.00;99.90
24470;DHT22;12635;50.852;5.676;2023-04-06T12:17:54;8.10;99.90
24470;DHT22;12635;50.852;5.676;2023-04-06T12:20:21;8.10;99.90
24470;DHT22;12635;50.852;5.676;2023-04-06T12:22:48;8.10;99.90
24470;DHT22;12635;50.852;5.676;2023-04-06T12:25:15;8.10;99.90
24470;DHT22;12635;50.852;5.676;2023-04-06T12:27:42;8.10;99.90
24470;DHT22;12635;50.852;5.676;2023-04-06T12:30:11;8.00;99.90
24470;DHT22;12635;50.852;5.676;2023-04-06T12:32:38;8.10;99.90
24470;DHT22;12635;50.852;5.676;2023-04-06T12:35:05;8.00;99.90
24470;DHT22;12635;50.852;5.676;2023-04-06T12:37:34;8.00;99.90
24470;DHT22;12635;50.852;5.676;2023-04-06T12:40:02;8.10;99.90
24470;DHT22;12635;50.852;5.676;2023-04-06T12:42:29;8.30;99.90
24470;DHT22;12635;50.852;5.676;2023-04-06T12:44:56;8.20;99.90
24470;DHT22;12635;50.852;5.676;2023-04-06T12:47:25;8.00;99.90
24470;DHT22;12635;50.852;5.676;2023-04-06T12:49:52;8.00;99.90
24470;DHT22;12635;50.852;5.676;2023-04-06T12:52:19;8.00;99.90
24470;DHT22;12635;50.852;5.676;2023-04-06T12:54:47;8.00;99.90
24470;DHT22;12635;50.852;5.676;2023-04-06T12:57:13;8.00;99.90
24470;DHT22;12635;50.852;5.676;2023-04-06T12:59:42;8.10;99.90
24470;DHT22;12635;50.852;5.676;2023-04-06T13:02:09;8.10;99.90
24470;DHT22;12635;50.852;5.676;2023-04-06T13:04:38;8.10;99.90
24470;DHT22;12635;50.852;5.676;2023-04-06T13:07:05;8.10;99.90
24470;DHT22;12635;50.852;5.676;2023-04-06T13:09:32;8.00;99.90
24470;DHT22;12635;50.852;5.676;2023-04-06T13:11:59;8.10;99.90
24470;DHT22;12635;50.852;5.676;2023-04-06T13:14:26;8.10;99.90
24470;DHT22;12635;50.852;5.676;2023-04-06T13:16:53;8.20;99.90
24470;DHT22;12635;50.852;5.676;2023-04-06T13:19:19;8.20;99.90
24470;DHT22;12635;50.852;5.676;2023-04-06T13:21:48;8.30;99.90
24470;DHT22;12635;50.852;5.676;2023-04-06T13:24:15;8.20;99.90
24470;DHT22;12635;50.852;5.676;2023-04-06T13:26:42;8.20;99.90
24470;DHT22;12635;50.852;5.676;2023-04-06T13:29:09;8.20;99.90
24470;DHT22;12635;50.852;5.676;2023-04-06T13:31:35;8.10;99.90
24470;DHT22;12635;50.852;5.676;2023-04-06T13:34:03;8.10;99.90
24470;DHT22;12635;50.852;5.676;2023-04-06T13:36:30;8.20;99.90
24470;DHT22;12635;50.852;5.676;2023-04-06T13:38:59;8.00;99.90
24470;DHT22;12635;50.852;5.676;2023-04-06T13:41:26;8.00;99.90
24470;DHT22;12635;50.852;5.676;2023-04-06T13:43:53;8.20;99.90
24470;DHT22;12635;50.852;5.676;2023-04-06T13:46:20;8.30;99.90
24470;DHT22;12635;50.852;5.676;2023-04-06T13:48:47;8.30;99.90
24470;DHT22;12635;50.852;5.676;2023-04-06T13:51:15;8.30;99.90
24470;DHT22;12635;50.852;5.676;2023-04-06T13:53:42;8.30;99.90
24470;DHT22;12635;50.852;5.676;2023-04-06T13:56:10;8.40;99.90
24470;DHT22;12635;50.852;5.676;2023-04-06T13:58:37;8.40;99.90
24470;DHT22;12635;50.852;5.676;2023-04-06T14:01:04;8.50;99.90
24470;DHT22;12635;50.852;5.676;2023-04-06T14:03:31;8.60;99.90
24470;DHT22;12635;50.852;5.676;2023-04-06T14:05:58;8.60;99.90
24470;DHT22;12635;50.852;5.676;2023-04-06T14:08:25;8.60;99.90
24470;DHT22;12635;50.852;5.676;2023-04-06T14:10:52;8.70;99.90
24470;DHT22;12635;50.852;5.676;2023-04-06T14:13:20;8.60;99.90
24470;DHT22;12635;50.852;5.676;2023-04-06T14:15:52;8.70;99.90
24470;DHT22;12635;50.852;5.676;2023-04-06T14:18:19;8.70;99.90
24470;DHT22;12635;50.852;5.676;2023-04-06T14:20:53;8.70;99.90
24470;DHT22;12635;50.852;5.676;2023-04-06T14:23:19;8.70;99.90
24470;DHT22;12635;50.852;5.676;2023-04-06T14:25:47;8.60;99.90
24470;DHT22;12635;50.852;5.676;2023-04-06T14:28:14;8.70;99.90
24470;DHT22;12635;50.852;5.676;2023-04-06T14:30:43;8.70;99.90
24470;DHT22;12635;50.852;5.676;2023-04-06T14:33:10;8.70;99.90
24470;DHT22;12635;50.852;5.676;2023-04-06T14:35:37;8.70;99.90
24470;DHT22;12635;50.852;5.676;2023-04-06T14:38:04;8.60;99.90
24470;DHT22;12635;50.852;5.676;2023-04-06T14:40:34;8.50;99.90
24470;DHT22;12635;50.852;5.676;2023-04-06T14:43:01;8.50;99.90
24470;DHT22;12635;50.852;5.676;2023-04-06T14:45:28;8.40;99.90
24470;DHT22;12635;50.852;5.676;2023-04-06T14:47:56;8.30;99.90
24470;DHT22;12635;50.852;5.676;2023-04-06T14:50:23;8.30;99.90
24470;DHT22;12635;50.852;5.676;2023-04-06T14:52:50;8.30;99.90
24470;DHT22;12635;50.852;5.676;2023-04-06T14:55:17;8.30;99.90
24470;DHT22;12635;50.852;5.676;2023-04-06T14:57:43;8.30;99.90
24470;DHT22;12635;50.852;5.676;2023-04-06T15:00:11;8.40;99.90
24470;DHT22;12635;50.852;5.676;2023-04-06T15:02:38;8.30;99.90
24470;DHT22;12635;50.852;5.676;2023-04-06T15:05:07;8.30;99.90
24470;DHT22;12635;50.852;5.676;2023-04-06T15:07:34;8.30;99.90
24470;DHT22;12635;50.852;5.676;2023-04-06T15:10:01;8.40;99.90
24470;DHT22;12635;50.852;5.676;2023-04-06T15:12:28;8.20;99.90
24470;DHT22;12635;50.852;5.676;2023-04-06T15:14:55;8.20;99.90
24470;DHT22;12635;50.852;5.676;2023-04-06T15:17:22;8.10;99.90
24470;DHT22;12635;50.852;5.676;2023-04-06T15:19:50;8.00;99.90
24470;DHT22;12635;50.852;5.676;2023-04-06T15:22:20;7.80;99.90
24470;DHT22;12635;50.852;5.676;2023-04-06T15:24:46;7.80;99.90
24470;DHT22;12635;50.852;5.676;2023-04-06T15:27:13;7.60;99.90
24470;DHT22;12635;50.852;5.676;2023-04-06T15:29:40;7.40;99.90
24470;DHT22;12635;50.852;5.676;2023-04-06T15:32:07;7.40;99.90
24470;DHT22;12635;50.852;5.676;2023-04-06T15:34:34;7.30;99.90
24470;DHT22;12635;50.852;5.676;2023-04-06T15:37:01;7.30;99.90
24470;DHT22;12635;50.852;5.676;2023-04-06T15:39:30;7.20;99.90
24470;DHT22;12635;50.852;5.676;2023-04-06T15:41:57;7.20;99.90
24470;DHT22;12635;50.852;5.676;2023-04-06T15:44:24;7.30;99.90
24470;DHT22;12635;50.852;5.676;2023-04-06T15:46:51;7.30;99.90